sensor_id;sensor_type;location;lat;lon;timestamp;P1;durP1;ratioP1;P2;durP2;ratioP2
18114;SDS011;9184;54.390;18.620;2022-09-01T00:00:19;3.20;;;1.80;;
18114;SDS011;9184;54.390;18.620;2022-09-01T00:00:57;5.82;;;1.63;;
18114;SDS011;9184;54.390;18.620;2022-09-01T00:01:28;2.45;;;1.38;;
18114;SDS011;9184;54.390;18.620;2022-09-01T00:01:59;2.65;;;1.45;;
18114;SDS011;9184;54.390;18.620;2022-09-01T00:02:39;3.03;;;1.52;;
18114;SDS011;9184;54.390;18.620;2022-09-01T00:03:09;3.70;;;1.48;;
18114;SDS011;9184;54.390;18.620;2022-09-01T00:03:41;2.72;;;1.63;;
18114;SDS011;9184;54.390;18.620;2022-09-01T00:04:12;2.33;;;1.38;;
18114;SDS011;9184;54.390;18.620;2022-09-01T00:04:45;3.90;;;1.58;;
18114;SDS011;9184;54.390;18.620;2022-09-01T00:05:16;2.95;;;1.55;;
18114;SDS011;9184;54.390;18.620;2022-09-01T00:05:47;6.15;;;1.55;;
18114;SDS011;9184;54.390;18.620;2022-09-01T00:06:23;3.67;;;1.50;;
18114;SDS011;9184;54.390;18.620;2022-09-01T00:06:54;2.92;;;1.50;;
18114;SDS011;9184;54.390;18.620;2022-09-01T00:07:25;4.13;;;1.83;;
18114;SDS011;9184;54.390;18.620;2022-09-01T00:07:56;2.55;;;1.52;;
18114;SDS011;9184;54.390;18.620;2022-09-01T00:08:27;4.45;;;1.80;;
18114;SDS011;9184;54.390;18.620;2022-09-01T00:08:58;4.30;;;1.67;;
18114;SDS011;9184;54.390;18.620;2022-09-01T00:09:30;4.85;;;1.60;;
18114;SDS011;9184;54.390;18.620;2022-09-01T00:10:01;5.18;;;1.48;;
18114;SDS011;9184;54.390;18.620;2022-09-01T00:10:34;3.00;;;1.45;;
18114;SDS011;9184;54.390;18.620;2022-09-01T00:11:04;2.85;;;1.48;;
18114;SDS011;9184;54.390;18.620;2022-09-01T00:11:34;3.60;;;1.55;;
18114;SDS011;9184;54.390;18.620;2022-09-01T00:12:07;3.08;;;1.50;;
18114;SDS011;9184;54.390;18.620;2022-09-01T00:12:38;2.72;;;1.50;;
18114;SDS011;9184;54.390;18.620;2022-09-01T00:13:08;2.63;;;1.40;;
18114;SDS011;9184;54.390;18.620;2022-09-01T00:13:39;2.72;;;1.65;;
18114;SDS011;9184;54.390;18.620;2022-09-01T00:14:10;3.05;;;1.52;;
18114;SDS011;9184;54.390;18.620;2022-09-01T00:14:41;3.17;;;1.65;;
18114;SDS011;9184;54.390;18.620;2022-09-01T00:15:12;3.08;;;1.33;;
18114;SDS011;9184;54.390;18.620;2022-09-01T00:15:43;4.43;;;1.67;;
18114;SDS011;9184;54.390;18.620;2022-09-01T00:16:13;4.65;;;1.65;;
18114;SDS011;9184;54.390;18.620;2022-09-01T00:16:44;3.40;;;1.70;;
18114;SDS011;9184;54.390;18.620;2022-09-01T00:17:15;4.30;;;1.45;;
18114;SDS011;9184;54.390;18.620;2022-09-01T00:17:47;3.05;;;1.90;;
18114;SDS011;9184;54.390;18.620;2022-09-01T00:18:17;2.58;;;1.60;;
18114;SDS011;9184;54.390;18.620;2022-09-01T00:18:49;5.68;;;1.85;;
18114;SDS011;9184;54.390;18.620;2022-09-01T00:19:20;2.47;;;1.50;;
18114;SDS011;9184;54.390;18.620;2022-09-01T00:19:50;4.07;;;1.58;;
18114;SDS011;9184;54.390;18.620;2022-09-01T00:20:21;1.70;;;1.30;;
18114;SDS011;9184;54.390;18.620;2022-09-01T00:20:52;4.53;;;1.58;;
18114;SDS011;9184;54.390;18.620;2022-09-01T00:21:27;1.77;;;1.40;;
18114;SDS011;9184;54.390;18.620;2022-09-01T00:21:58;3.78;;;1.77;;
18114;SDS011;9184;54.390;18.620;2022-09-01T00:22:29;2.63;;;1.45;;
18114;SDS011;9184;54.390;18.620;2022-09-01T00:23:00;3.55;;;1.38;;
18114;SDS011;9184;54.390;18.620;2022-09-01T00:23:31;2.03;;;1.40;;
18114;SDS011;9184;54.390;18.620;2022-09-01T00:24:02;2.30;;;1.23;;
18114;SDS011;9184;54.390;18.620;2022-09-01T00:24:33;7.32;;;1.60;;
18114;SDS011;9184;54.390;18.620;2022-09-01T00:25:03;2.17;;;1.23;;
18114;SDS011;9184;54.390;18.620;2022-09-01T00:25:35;4.25;;;1.70;;
18114;SDS011;9184;54.390;18.620;2022-09-01T00:26:06;3.83;;;1.60;;
18114;SDS011;9184;54.390;18.620;2022-09-01T00:26:36;2.95;;;1.58;;
18114;SDS011;9184;54.390;18.620;2022-09-01T00:27:08;2.28;;;1.60;;
18114;SDS011;9184;54.390;18.620;2022-09-01T00:27:38;3.40;;;1.40;;
18114;SDS011;9184;54.390;18.620;2022-09-01T00:28:09;3.08;;;1.30;;
18114;SDS011;9184;54.390;18.620;2022-09-01T00:28:40;7.30;;;1.52;;
18114;SDS011;9184;54.390;18.620;2022-09-01T00:29:11;2.40;;;1.17;;
18114;SDS011;9184;54.390;18.620;2022-09-01T00:29:41;3.88;;;1.40;;
18114;SDS011;9184;54.390;18.620;2022-09-01T00:30:12;1.67;;;1.20;;
18114;SDS011;9184;54.390;18.620;2022-09-01T00:30:43;5.00;;;1.70;;
18114;SDS011;9184;54.390;18.620;2022-09-01T00:31:13;3.25;;;1.40;;
18114;SDS011;9184;54.390;18.620;2022-09-01T00:31:45;1.42;;;1.08;;
18114;SDS011;9184;54.390;18.620;2022-09-01T00:32:16;3.75;;;1.25;;
18114;SDS011;9184;54.390;18.620;2022-09-01T00:32:47;6.57;;;1.65;;
18114;SDS011;9184;54.390;18.620;2022-09-01T00:33:19;1.00;;;0.90;;
18114;SDS011;9184;54.390;18.620;2022-09-01T00:33:50;2.20;;;1.20;;
18114;SDS011;9184;54.390;18.620;2022-09-01T00:34:21;3.10;;;1.50;;
18114;SDS011;9184;54.390;18.620;2022-09-01T00:34:53;2.25;;;1.10;;
18114;SDS011;9184;54.390;18.620;2022-09-01T00:35:23;1.95;;;0.95;;
18114;SDS011;9184;54.390;18.620;2022-09-01T00:35:53;2.45;;;1.33;;
18114;SDS011;9184;54.390;18.620;2022-09-01T00:36:25;4.10;;;1.13;;
18114;SDS011;9184;54.390;18.620;2022-09-01T00:36:55;3.42;;;1.10;;
18114;SDS011;9184;54.390;18.620;2022-09-01T00:37:26;1.65;;;1.10;;
18114;SDS011;9184;54.390;18.620;2022-09-01T00:37:56;3.83;;;1.17;;
18114;SDS011;9184;54.390;18.620;2022-09-01T00:38:28;3.08;;;1.08;;
18114;SDS011;9184;54.390;18.620;2022-09-01T00:38:58;2.90;;;1.05;;
18114;SDS011;9184;54.390;18.620;2022-09-01T00:39:29;2.22;;;1.10;;
18114;SDS011;9184;54.390;18.620;2022-09-01T00:40:00;1.42;;;0.90;;
18114;SDS011;9184;54.390;18.620;2022-09-01T00:40:31;1.90;;;1.20;;
18114;SDS011;9184;54.390;18.620;2022-09-01T00:41:02;2.03;;;1.00;;
18114;SDS011;9184;54.390;18.620;2022-09-01T00:41:33;1.77;;;1.00;;
18114;SDS011;9184;54.390;18.620;2022-09-01T00:42:07;0.95;;;0.90;;
18114;SDS011;9184;54.390;18.620;2022-09-01T00:42:37;2.42;;;1.20;;
18114;SDS011;9184;54.390;18.620;2022-09-01T00:43:12;4.40;;;1.30;;
18114;SDS011;9184;54.390;18.620;2022-09-01T00:43:44;3.15;;;1.40;;
18114;SDS011;9184;54.390;18.620;2022-09-01T00:44:16;3.50;;;1.27;;
18114;SDS011;9184;54.390;18.620;2022-09-01T00:44:48;2.55;;;1.08;;
18114;SDS011;9184;54.390;18.620;2022-09-01T00:45:19;2.42;;;1.10;;
18114;SDS011;9184;54.390;18.620;2022-09-01T00:45:50;2.25;;;1.23;;
18114;SDS011;9184;54.390;18.620;2022-09-01T00:46:22;2.75;;;0.98;;
18114;SDS011;9184;54.390;18.620;2022-09-01T00:46:55;2.78;;;0.95;;
18114;SDS011;9184;54.390;18.620;2022-09-01T00:47:25;1.23;;;1.13;;
18114;SDS011;9184;54.390;18.620;2022-09-01T00:47:57;1.33;;;1.10;;
18114;SDS011;9184;54.390;18.620;2022-09-01T00:48:28;2.90;;;1.00;;
18114;SDS011;9184;54.390;18.620;2022-09-01T00:49:00;2.55;;;1.13;;
18114;SDS011;9184;54.390;18.620;2022-09-01T00:49:32;4.57;;;1.30;;
18114;SDS011;9184;54.390;18.620;2022-09-01T00:50:05;3.08;;;1.17;;
18114;SDS011;9184;54.390;18.620;2022-09-01T00:50:36;4.82;;;1.20;;
18114;SDS011;9184;54.390;18.620;2022-09-01T00:51:07;1.50;;;1.00;;
18114;SDS011;9184;54.390;18.620;2022-09-01T00:51:39;3.65;;;1.30;;
18114;SDS011;9184;54.390;18.620;2022-09-01T00:52:13;4.00;;;1.40;;
18114;SDS011;9184;54.390;18.620;2022-09-01T00:52:45;5.82;;;1.33;;
18114;SDS011;9184;54.390;18.620;2022-09-01T00:53:18;5.45;;;1.42;;
18114;SDS011;9184;54.390;18.620;2022-09-01T00:53:48;2.90;;;1.20;;
18114;SDS011;9184;54.390;18.620;2022-09-01T00:54:20;3.80;;;1.45;;
18114;SDS011;9184;54.390;18.620;2022-09-01T00:54:52;7.32;;;1.42;;
18114;SDS011;9184;54.390;18.620;2022-09-01T00:55:24;5.55;;;1.35;;
18114;SDS011;9184;54.390;18.620;2022-09-01T00:55:55;6.00;;;1.30;;
18114;SDS011;9184;54.390;18.620;2022-09-01T00:56:27;2.53;;;1.35;;
18114;SDS011;9184;54.390;18.620;2022-09-01T00:56:59;4.55;;;1.33;;
18114;SDS011;9184;54.390;18.620;2022-09-01T00:57:31;4.80;;;1.27;;
18114;SDS011;9184;54.390;18.620;2022-09-01T00:58:03;2.78;;;1.10;;
18114;SDS011;9184;54.390;18.620;2022-09-01T00:58:35;3.03;;;1.20;;
18114;SDS011;9184;54.390;18.620;2022-09-01T00:59:06;1.17;;;0.93;;
18114;SDS011;9184;54.390;18.620;2022-09-01T00:59:41;1.95;;;1.13;;
18114;SDS011;9184;54.390;18.620;2022-09-01T01:00:14;3.42;;;1.40;;
18114;SDS011;9184;54.390;18.620;2022-09-01T01:00:45;6.55;;;1.50;;
18114;SDS011;9184;54.390;18.620;2022-09-01T01:01:17;5.00;;;1.10;;
18114;SDS011;9184;54.390;18.620;2022-09-01T01:01:48;2.60;;;1.40;;
18114;SDS011;9184;54.390;18.620;2022-09-01T01:02:18;4.10;;;1.10;;
18114;SDS011;9184;54.390;18.620;2022-09-01T01:02:50;5.00;;;1.17;;
18114;SDS011;9184;54.390;18.620;2022-09-01T01:03:26;2.28;;;1.15;;
18114;SDS011;9184;54.390;18.620;2022-09-01T01:03:56;3.55;;;1.30;;
18114;SDS011;9184;54.390;18.620;2022-09-01T01:04:31;1.83;;;1.55;;
18114;SDS011;9184;54.390;18.620;2022-09-01T01:05:03;3.58;;;1.25;;
18114;SDS011;9184;54.390;18.620;2022-09-01T01:05:36;3.72;;;1.30;;
18114;SDS011;9184;54.390;18.620;2022-09-01T01:06:09;3.38;;;1.42;;
18114;SDS011;9184;54.390;18.620;2022-09-01T01:06:40;2.83;;;1.27;;
18114;SDS011;9184;54.390;18.620;2022-09-01T01:07:11;2.00;;;0.90;;
18114;SDS011;9184;54.390;18.620;2022-09-01T01:07:42;2.35;;;1.20;;
18114;SDS011;9184;54.390;18.620;2022-09-01T01:08:15;3.95;;;1.20;;
18114;SDS011;9184;54.390;18.620;2022-09-01T01:08:50;2.65;;;1.23;;
18114;SDS011;9184;54.390;18.620;2022-09-01T01:09:28;2.78;;;1.30;;
18114;SDS011;9184;54.390;18.620;2022-09-01T01:09:59;7.28;;;1.33;;
18114;SDS011;9184;54.390;18.620;2022-09-01T01:10:30;2.72;;;1.30;;
18114;SDS011;9184;54.390;18.620;2022-09-01T01:11:02;2.55;;;1.10;;
18114;SDS011;9184;54.390;18.620;2022-09-01T01:11:34;2.92;;;1.60;;
18114;SDS011;9184;54.390;18.620;2022-09-01T01:12:05;1.88;;;1.20;;
18114;SDS011;9184;54.390;18.620;2022-09-01T01:12:36;3.00;;;1.25;;
18114;SDS011;9184;54.390;18.620;2022-09-01T01:13:10;1.98;;;1.25;;
18114;SDS011;9184;54.390;18.620;2022-09-01T01:13:49;1.98;;;1.00;;
18114;SDS011;9184;54.390;18.620;2022-09-01T01:14:20;2.17;;;1.10;;
18114;SDS011;9184;54.390;18.620;2022-09-01T01:14:52;3.08;;;1.17;;
18114;SDS011;9184;54.390;18.620;2022-09-01T01:15:24;6.68;;;1.38;;
18114;SDS011;9184;54.390;18.620;2022-09-01T01:15:54;5.05;;;1.30;;
18114;SDS011;9184;54.390;18.620;2022-09-01T01:16:25;3.53;;;1.40;;
18114;SDS011;9184;54.390;18.620;2022-09-01T01:16:57;2.83;;;1.10;;
18114;SDS011;9184;54.390;18.620;2022-09-01T01:17:28;4.93;;;1.27;;
18114;SDS011;9184;54.390;18.620;2022-09-01T01:17:58;2.58;;;1.48;;
18114;SDS011;9184;54.390;18.620;2022-09-01T01:18:31;5.22;;;1.17;;
18114;SDS011;9184;54.390;18.620;2022-09-01T01:19:01;2.40;;;1.30;;
18114;SDS011;9184;54.390;18.620;2022-09-01T01:19:36;3.10;;;1.35;;
18114;SDS011;9184;54.390;18.620;2022-09-01T01:20:27;3.17;;;1.40;;
18114;SDS011;9184;54.390;18.620;2022-09-01T01:21:21;1.27;;;1.17;;
18114;SDS011;9184;54.390;18.620;2022-09-01T01:22:12;2.88;;;1.40;;
18114;SDS011;9184;54.390;18.620;2022-09-01T01:23:04;4.60;;;1.40;;
18114;SDS011;9184;54.390;18.620;2022-09-01T01:23:39;1.98;;;1.10;;
18114;SDS011;9184;54.390;18.620;2022-09-01T01:24:18;2.25;;;1.25;;
18114;SDS011;9184;54.390;18.620;2022-09-01T01:24:49;1.70;;;1.20;;
18114;SDS011;9184;54.390;18.620;2022-09-01T01:25:21;2.28;;;1.20;;
18114;SDS011;9184;54.390;18.620;2022-09-01T01:25:53;1.63;;;1.05;;
18114;SDS011;9184;54.390;18.620;2022-09-01T01:26:24;2.40;;;1.25;;
18114;SDS011;9184;54.390;18.620;2022-09-01T01:26:56;3.17;;;1.17;;
18114;SDS011;9184;54.390;18.620;2022-09-01T01:27:30;4.32;;;1.10;;
18114;SDS011;9184;54.390;18.620;2022-09-01T01:28:08;4.53;;;1.08;;
18114;SDS011;9184;54.390;18.620;2022-09-01T01:28:41;4.30;;;1.00;;
18114;SDS011;9184;54.390;18.620;2022-09-01T01:29:12;2.40;;;1.30;;
18114;SDS011;9184;54.390;18.620;2022-09-01T01:29:42;1.83;;;1.00;;
18114;SDS011;9184;54.390;18.620;2022-09-01T01:30:14;2.72;;;1.20;;
18114;SDS011;9184;54.390;18.620;2022-09-01T01:30:46;3.30;;;1.20;;
18114;SDS011;9184;54.390;18.620;2022-09-01T01:31:21;1.95;;;1.15;;
18114;SDS011;9184;54.390;18.620;2022-09-01T01:31:53;0.90;;;0.90;;
18114;SDS011;9184;54.390;18.620;2022-09-01T01:32:24;1.33;;;0.88;;
18114;SDS011;9184;54.390;18.620;2022-09-01T01:32:55;2.97;;;1.00;;
18114;SDS011;9184;54.390;18.620;2022-09-01T01:33:27;2.13;;;1.05;;
18114;SDS011;9184;54.390;18.620;2022-09-01T01:33:59;1.27;;;0.80;;
18114;SDS011;9184;54.390;18.620;2022-09-01T01:34:30;1.92;;;0.75;;
18114;SDS011;9184;54.390;18.620;2022-09-01T01:35:02;1.08;;;0.68;;
18114;SDS011;9184;54.390;18.620;2022-09-01T01:35:35;1.58;;;0.98;;
18114;SDS011;9184;54.390;18.620;2022-09-01T01:36:07;2.33;;;1.00;;
18114;SDS011;9184;54.390;18.620;2022-09-01T01:36:39;2.15;;;1.00;;
18114;SDS011;9184;54.390;18.620;2022-09-01T01:37:11;5.57;;;1.02;;
18114;SDS011;9184;54.390;18.620;2022-09-01T01:37:43;2.55;;;0.90;;
18114;SDS011;9184;54.390;18.620;2022-09-01T01:38:18;3.65;;;1.20;;
18114;SDS011;9184;54.390;18.620;2022-09-01T01:38:49;1.08;;;0.82;;
18114;SDS011;9184;54.390;18.620;2022-09-01T01:39:23;1.35;;;0.75;;
18114;SDS011;9184;54.390;18.620;2022-09-01T01:39:54;0.90;;;0.80;;
18114;SDS011;9184;54.390;18.620;2022-09-01T01:40:25;1.38;;;1.05;;
18114;SDS011;9184;54.390;18.620;2022-09-01T01:40:55;2.55;;;1.13;;
18114;SDS011;9184;54.390;18.620;2022-09-01T01:41:27;1.17;;;0.90;;
18114;SDS011;9184;54.390;18.620;2022-09-01T01:41:59;1.02;;;0.93;;
18114;SDS011;9184;54.390;18.620;2022-09-01T01:42:31;3.28;;;0.90;;
18114;SDS011;9184;54.390;18.620;2022-09-01T01:43:02;1.58;;;0.70;;
18114;SDS011;9184;54.390;18.620;2022-09-01T01:43:34;3.83;;;1.17;;
18114;SDS011;9184;54.390;18.620;2022-09-01T01:44:04;2.90;;;0.93;;
18114;SDS011;9184;54.390;18.620;2022-09-01T01:44:35;2.85;;;0.80;;
18114;SDS011;9184;54.390;18.620;2022-09-01T01:45:07;2.22;;;0.77;;
18114;SDS011;9184;54.390;18.620;2022-09-01T01:45:41;1.30;;;1.05;;
18114;SDS011;9184;54.390;18.620;2022-09-01T01:46:13;1.23;;;0.80;;
18114;SDS011;9184;54.390;18.620;2022-09-01T01:46:45;1.40;;;0.80;;
18114;SDS011;9184;54.390;18.620;2022-09-01T01:47:17;2.40;;;0.82;;
18114;SDS011;9184;54.390;18.620;2022-09-01T01:47:49;2.58;;;0.80;;
18114;SDS011;9184;54.390;18.620;2022-09-01T01:48:22;2.22;;;0.93;;
18114;SDS011;9184;54.390;18.620;2022-09-01T01:48:54;1.55;;;1.20;;
18114;SDS011;9184;54.390;18.620;2022-09-01T01:49:26;1.75;;;0.90;;
18114;SDS011;9184;54.390;18.620;2022-09-01T01:50:00;0.73;;;0.50;;
18114;SDS011;9184;54.390;18.620;2022-09-01T01:50:32;2.45;;;1.20;;
18114;SDS011;9184;54.390;18.620;2022-09-01T01:51:04;2.25;;;1.00;;
18114;SDS011;9184;54.390;18.620;2022-09-01T01:51:35;2.78;;;0.80;;
18114;SDS011;9184;54.390;18.620;2022-09-01T01:52:06;1.17;;;0.70;;
18114;SDS011;9184;54.390;18.620;2022-09-01T01:52:37;2.22;;;1.15;;
18114;SDS011;9184;54.390;18.620;2022-09-01T01:53:07;1.08;;;0.85;;
18114;SDS011;9184;54.390;18.620;2022-09-01T01:53:42;2.03;;;1.00;;
18114;SDS011;9184;54.390;18.620;2022-09-01T01:54:14;4.85;;;1.05;;
18114;SDS011;9184;54.390;18.620;2022-09-01T01:54:46;5.75;;;1.10;;
18114;SDS011;9184;54.390;18.620;2022-09-01T01:55:17;2.95;;;1.00;;
18114;SDS011;9184;54.390;18.620;2022-09-01T01:55:48;1.27;;;0.80;;
18114;SDS011;9184;54.390;18.620;2022-09-01T01:56:22;5.25;;;0.93;;
18114;SDS011;9184;54.390;18.620;2022-09-01T01:56:54;2.55;;;0.90;;
18114;SDS011;9184;54.390;18.620;2022-09-01T01:57:26;2.45;;;1.02;;
18114;SDS011;9184;54.390;18.620;2022-09-01T01:58:00;2.88;;;0.80;;
18114;SDS011;9184;54.390;18.620;2022-09-01T01:58:31;1.67;;;0.90;;
18114;SDS011;9184;54.390;18.620;2022-09-01T01:59:03;3.55;;;1.13;;
18114;SDS011;9184;54.390;18.620;2022-09-01T01:59:35;2.65;;;1.10;;
18114;SDS011;9184;54.390;18.620;2022-09-01T02:00:08;2.95;;;1.00;;
18114;SDS011;9184;54.390;18.620;2022-09-01T02:00:40;3.60;;;1.02;;
18114;SDS011;9184;54.390;18.620;2022-09-01T02:01:13;1.00;;;0.68;;
18114;SDS011;9184;54.390;18.620;2022-09-01T02:01:46;3.17;;;1.08;;
18114;SDS011;9184;54.390;18.620;2022-09-01T02:02:20;1.80;;;0.82;;
18114;SDS011;9184;54.390;18.620;2022-09-01T02:02:55;2.95;;;1.02;;
18114;SDS011;9184;54.390;18.620;2022-09-01T02:03:26;1.30;;;0.75;;
18114;SDS011;9184;54.390;18.620;2022-09-01T02:03:58;3.25;;;1.10;;
18114;SDS011;9184;54.390;18.620;2022-09-01T02:04:30;2.88;;;1.02;;
18114;SDS011;9184;54.390;18.620;2022-09-01T02:05:03;1.48;;;0.80;;
18114;SDS011;9184;54.390;18.620;2022-09-01T02:05:34;1.80;;;1.00;;
18114;SDS011;9184;54.390;18.620;2022-09-01T02:06:07;3.53;;;0.80;;
18114;SDS011;9184;54.390;18.620;2022-09-01T02:06:38;2.03;;;1.10;;
18114;SDS011;9184;54.390;18.620;2022-09-01T02:07:10;4.15;;;0.80;;
18114;SDS011;9184;54.390;18.620;2022-09-01T02:07:42;2.33;;;0.98;;
18114;SDS011;9184;54.390;18.620;2022-09-01T02:08:13;5.80;;;0.80;;
18114;SDS011;9184;54.390;18.620;2022-09-01T02:08:44;0.80;;;0.80;;
18114;SDS011;9184;54.390;18.620;2022-09-01T02:09:15;2.13;;;1.08;;
18114;SDS011;9184;54.390;18.620;2022-09-01T02:09:48;1.42;;;0.80;;
18114;SDS011;9184;54.390;18.620;2022-09-01T02:10:19;1.92;;;0.95;;
18114;SDS011;9184;54.390;18.620;2022-09-01T02:10:50;1.75;;;0.80;;
18114;SDS011;9184;54.390;18.620;2022-09-01T02:11:21;2.10;;;0.82;;
18114;SDS011;9184;54.390;18.620;2022-09-01T02:11:52;3.78;;;1.25;;
18114;SDS011;9184;54.390;18.620;2022-09-01T02:12:26;1.52;;;1.00;;
18114;SDS011;9184;54.390;18.620;2022-09-01T02:12:57;2.08;;;1.00;;
18114;SDS011;9184;54.390;18.620;2022-09-01T02:13:32;4.35;;;1.10;;
18114;SDS011;9184;54.390;18.620;2022-09-01T02:14:04;1.98;;;1.00;;
18114;SDS011;9184;54.390;18.620;2022-09-01T02:14:36;2.15;;;0.95;;
18114;SDS011;9184;54.390;18.620;2022-09-01T02:15:07;2.85;;;1.20;;
18114;SDS011;9184;54.390;18.620;2022-09-01T02:15:41;1.88;;;1.00;;
18114;SDS011;9184;54.390;18.620;2022-09-01T02:16:14;1.58;;;0.98;;
18114;SDS011;9184;54.390;18.620;2022-09-01T02:16:45;1.30;;;0.90;;
18114;SDS011;9184;54.390;18.620;2022-09-01T02:17:16;2.60;;;0.93;;
18114;SDS011;9184;54.390;18.620;2022-09-01T02:17:47;1.55;;;0.93;;
18114;SDS011;9184;54.390;18.620;2022-09-01T02:18:19;2.85;;;1.13;;
18114;SDS011;9184;54.390;18.620;2022-09-01T02:18:50;1.73;;;0.90;;
18114;SDS011;9184;54.390;18.620;2022-09-01T02:19:22;4.25;;;1.33;;
18114;SDS011;9184;54.390;18.620;2022-09-01T02:19:53;6.15;;;1.15;;
18114;SDS011;9184;54.390;18.620;2022-09-01T02:20:26;3.55;;;0.90;;
18114;SDS011;9184;54.390;18.620;2022-09-01T02:20:58;3.35;;;0.98;;
18114;SDS011;9184;54.390;18.620;2022-09-01T02:21:30;2.05;;;1.02;;
18114;SDS011;9184;54.390;18.620;2022-09-01T02:22:00;1.25;;;0.70;;
18114;SDS011;9184;54.390;18.620;2022-09-01T02:22:31;3.28;;;0.90;;
18114;SDS011;9184;54.390;18.620;2022-09-01T02:23:02;3.70;;;1.20;;
18114;SDS011;9184;54.390;18.620;2022-09-01T02:23:39;1.90;;;1.10;;
18114;SDS011;9184;54.390;18.620;2022-09-01T02:24:10;2.75;;;1.17;;
18114;SDS011;9184;54.390;18.620;2022-09-01T02:24:41;1.77;;;0.82;;
18114;SDS011;9184;54.390;18.620;2022-09-01T02:25:24;2.40;;;1.00;;
18114;SDS011;9184;54.390;18.620;2022-09-01T02:25:56;1.40;;;0.85;;
18114;SDS011;9184;54.390;18.620;2022-09-01T02:26:30;2.65;;;1.00;;
18114;SDS011;9184;54.390;18.620;2022-09-01T02:27:02;3.25;;;1.20;;
18114;SDS011;9184;54.390;18.620;2022-09-01T02:27:34;2.00;;;0.98;;
18114;SDS011;9184;54.390;18.620;2022-09-01T02:28:05;2.92;;;1.13;;
18114;SDS011;9184;54.390;18.620;2022-09-01T02:28:44;4.60;;;1.13;;
18114;SDS011;9184;54.390;18.620;2022-09-01T02:29:19;2.28;;;1.10;;
18114;SDS011;9184;54.390;18.620;2022-09-01T02:29:50;2.60;;;0.90;;
18114;SDS011;9184;54.390;18.620;2022-09-01T02:30:24;2.22;;;1.30;;
18114;SDS011;9184;54.390;18.620;2022-09-01T02:30:56;1.73;;;0.95;;
18114;SDS011;9184;54.390;18.620;2022-09-01T02:31:28;1.23;;;0.80;;
18114;SDS011;9184;54.390;18.620;2022-09-01T02:32:01;2.70;;;1.13;;
18114;SDS011;9184;54.390;18.620;2022-09-01T02:32:31;1.80;;;0.93;;
18114;SDS011;9184;54.390;18.620;2022-09-01T02:33:02;1.67;;;0.93;;
18114;SDS011;9184;54.390;18.620;2022-09-01T02:33:34;7.97;;;1.10;;
18114;SDS011;9184;54.390;18.620;2022-09-01T02:34:06;3.05;;;1.23;;
18114;SDS011;9184;54.390;18.620;2022-09-01T02:34:39;3.22;;;0.93;;
18114;SDS011;9184;54.390;18.620;2022-09-01T02:35:11;2.80;;;1.27;;
18114;SDS011;9184;54.390;18.620;2022-09-01T02:35:42;1.15;;;0.90;;
18114;SDS011;9184;54.390;18.620;2022-09-01T02:36:14;1.25;;;1.02;;
18114;SDS011;9184;54.390;18.620;2022-09-01T02:36:46;1.42;;;1.13;;
18114;SDS011;9184;54.390;18.620;2022-09-01T02:37:19;1.83;;;1.13;;
18114;SDS011;9184;54.390;18.620;2022-09-01T02:37:54;5.38;;;1.42;;
18114;SDS011;9184;54.390;18.620;2022-09-01T02:38:30;2.92;;;1.00;;
18114;SDS011;9184;54.390;18.620;2022-09-01T02:39:02;5.15;;;1.00;;
18114;SDS011;9184;54.390;18.620;2022-09-01T02:39:33;1.48;;;0.98;;
18114;SDS011;9184;54.390;18.620;2022-09-01T02:40:05;2.50;;;1.58;;
18114;SDS011;9184;54.390;18.620;2022-09-01T02:40:38;3.17;;;1.08;;
18114;SDS011;9184;54.390;18.620;2022-09-01T02:41:10;5.35;;;1.67;;
18114;SDS011;9184;54.390;18.620;2022-09-01T02:41:42;2.15;;;1.15;;
18114;SDS011;9184;54.390;18.620;2022-09-01T02:42:13;3.38;;;0.98;;
18114;SDS011;9184;54.390;18.620;2022-09-01T02:42:44;1.90;;;1.13;;
18114;SDS011;9184;54.390;18.620;2022-09-01T02:43:16;1.73;;;1.00;;
18114;SDS011;9184;54.390;18.620;2022-09-01T02:43:49;3.15;;;1.08;;
18114;SDS011;9184;54.390;18.620;2022-09-01T02:44:21;2.33;;;1.13;;
18114;SDS011;9184;54.390;18.620;2022-09-01T02:44:52;4.88;;;1.13;;
18114;SDS011;9184;54.390;18.620;2022-09-01T02:45:25;2.20;;;1.17;;
18114;SDS011;9184;54.390;18.620;2022-09-01T02:45:56;2.70;;;1.05;;
18114;SDS011;9184;54.390;18.620;2022-09-01T02:46:28;3.13;;;0.90;;
18114;SDS011;9184;54.390;18.620;2022-09-01T02:47:00;1.92;;;1.02;;
18114;SDS011;9184;54.390;18.620;2022-09-01T02:47:30;1.45;;;0.98;;
18114;SDS011;9184;54.390;18.620;2022-09-01T02:48:01;0.95;;;0.80;;
18114;SDS011;9184;54.390;18.620;2022-09-01T02:48:37;2.58;;;0.90;;
18114;SDS011;9184;54.390;18.620;2022-09-01T02:49:08;2.05;;;1.05;;
18114;SDS011;9184;54.390;18.620;2022-09-01T02:49:44;3.17;;;1.02;;
18114;SDS011;9184;54.390;18.620;2022-09-01T02:50:14;2.97;;;0.93;;
18114;SDS011;9184;54.390;18.620;2022-09-01T02:50:47;2.17;;;1.15;;
18114;SDS011;9184;54.390;18.620;2022-09-01T02:51:22;1.80;;;0.93;;
18114;SDS011;9184;54.390;18.620;2022-09-01T02:51:55;4.22;;;1.08;;
18114;SDS011;9184;54.390;18.620;2022-09-01T02:52:28;0.98;;;0.70;;
18114;SDS011;9184;54.390;18.620;2022-09-01T02:53:04;2.70;;;1.63;;
18114;SDS011;9184;54.390;18.620;2022-09-01T02:53:39;1.13;;;0.80;;
18114;SDS011;9184;54.390;18.620;2022-09-01T02:54:12;4.20;;;1.23;;
18114;SDS011;9184;54.390;18.620;2022-09-01T02:54:46;2.58;;;1.13;;
18114;SDS011;9184;54.390;18.620;2022-09-01T02:55:19;1.73;;;0.90;;
18114;SDS011;9184;54.390;18.620;2022-09-01T02:55:52;1.50;;;0.90;;
18114;SDS011;9184;54.390;18.620;2022-09-01T02:56:23;1.92;;;0.90;;
18114;SDS011;9184;54.390;18.620;2022-09-01T02:56:54;3.90;;;1.20;;
18114;SDS011;9184;54.390;18.620;2022-09-01T02:57:26;2.63;;;0.90;;
18114;SDS011;9184;54.390;18.620;2022-09-01T02:57:58;3.45;;;0.82;;
18114;SDS011;9184;54.390;18.620;2022-09-01T02:58:30;1.80;;;1.10;;
18114;SDS011;9184;54.390;18.620;2022-09-01T02:59:03;2.10;;;0.90;;
18114;SDS011;9184;54.390;18.620;2022-09-01T02:59:35;3.97;;;0.98;;
18114;SDS011;9184;54.390;18.620;2022-09-01T03:00:08;2.92;;;1.05;;
18114;SDS011;9184;54.390;18.620;2022-09-01T03:00:51;1.65;;;1.05;;
18114;SDS011;9184;54.390;18.620;2022-09-01T03:01:23;2.45;;;1.10;;
18114;SDS011;9184;54.390;18.620;2022-09-01T03:01:55;1.40;;;0.80;;
18114;SDS011;9184;54.390;18.620;2022-09-01T03:02:26;1.58;;;0.80;;
18114;SDS011;9184;54.390;18.620;2022-09-01T03:02:58;2.17;;;1.08;;
18114;SDS011;9184;54.390;18.620;2022-09-01T03:03:29;3.60;;;1.00;;
18114;SDS011;9184;54.390;18.620;2022-09-01T03:04:01;2.28;;;0.93;;
18114;SDS011;9184;54.390;18.620;2022-09-01T03:04:32;2.17;;;0.82;;
18114;SDS011;9184;54.390;18.620;2022-09-01T03:05:04;2.65;;;0.90;;
18114;SDS011;9184;54.390;18.620;2022-09-01T03:05:36;2.03;;;1.00;;
18114;SDS011;9184;54.390;18.620;2022-09-01T03:06:08;1.42;;;0.77;;
18114;SDS011;9184;54.390;18.620;2022-09-01T03:06:41;2.60;;;1.17;;
18114;SDS011;9184;54.390;18.620;2022-09-01T03:07:12;0.77;;;0.77;;
18114;SDS011;9184;54.390;18.620;2022-09-01T03:07:47;0.82;;;0.73;;
18114;SDS011;9184;54.390;18.620;2022-09-01T03:08:17;1.50;;;0.82;;
18114;SDS011;9184;54.390;18.620;2022-09-01T03:08:48;3.15;;;1.10;;
18114;SDS011;9184;54.390;18.620;2022-09-01T03:09:19;0.85;;;0.82;;
18114;SDS011;9184;54.390;18.620;2022-09-01T03:09:50;2.88;;;1.02;;
18114;SDS011;9184;54.390;18.620;2022-09-01T03:10:22;1.65;;;0.95;;
18114;SDS011;9184;54.390;18.620;2022-09-01T03:10:57;1.10;;;1.00;;
18114;SDS011;9184;54.390;18.620;2022-09-01T03:11:31;2.95;;;0.88;;
18114;SDS011;9184;54.390;18.620;2022-09-01T03:12:02;3.50;;;1.08;;
18114;SDS011;9184;54.390;18.620;2022-09-01T03:12:36;2.22;;;1.00;;
18114;SDS011;9184;54.390;18.620;2022-09-01T03:13:08;3.05;;;0.95;;
18114;SDS011;9184;54.390;18.620;2022-09-01T03:13:39;4.10;;;1.00;;
18114;SDS011;9184;54.390;18.620;2022-09-01T03:14:10;7.47;;;1.42;;
18114;SDS011;9184;54.390;18.620;2022-09-01T03:14:42;2.90;;;1.38;;